Cagayan De Oro, Philippines
Current Conditions -  °F | °C
As of 11:00 AM on Monday 22 Dec 2014 (Local Time) from RPMD Reporting Station
Scattered Clouds Scattered Clouds  
Wind Chill: 86°   Ceiling: Unl
Heat Index: 97°   Visibility: 6mi
Dew Point: 77°   Wind: 9mph
Humidity: 74%   Direction: 20°NNE
Pressure: 29.8"   Gusts: NA
Location:  8.45342°N, 124.6191°E
Report Text: RPMD 220300Z 02008KT 9999 FEW016 SCT090 30/25 Q1009 RMK A2980
Loading
Personal Weather Stations






























Interactive Weather Map New forecast layout! Learn more

10-Day Weather Forecast

Advertisements
Track Severe Weather on mobile